Time;durP1;ratioP1;P1;durP2;ratioP2;P2;SDS_P1;SDS_P2;PMS_P1;PMS_P2;Temp;Humidity;BMP_temperature;BMP_pressure;BME280_temperature;BME280_humidity;BME280_pressure;Samples;Min_cycle;Max_cycle;Signal;HPM_P1;HPM_P2
2021/04/09 00:04:42;;;;;;;;;;;0.90;99.90;;;-0.24;74.81;96131.47;10417273;28;2331;-79
2021/04/09 00:09:44;;;;;;;;;;;1.00;99.90;;;-0.17;74.59;96125.19;10392845;28;2327;-76
2021/04/09 00:14:46;;;;;;;;;;;2.70;99.90;;;-0.23;74.64;96120.69;10393013;28;2535;-77
2021/04/09 00:19:48;;;;;;;;;;;1.40;99.90;;;-0.20;73.96;96112.38;10394424;28;2396;-78
2021/04/09 00:24:50;;;;;;;;;;;1.20;99.90;;;-0.20;73.88;96104.44;10400858;28;2510;-78
2021/04/09 00:29:53;;;;;;;;;;;0.90;99.90;;;-0.28;73.90;96107.25;10394106;28;2464;-78
2021/04/09 00:34:55;;;;;;;;;;;0.90;99.90;;;-0.29;74.56;96105.63;10392248;28;2473;-79
2021/04/09 00:39:58;;;;;;;;;;;2.10;99.90;;;-0.34;74.09;96097.47;10408571;28;2357;-77
2021/04/09 00:44:59;;;;;;;;;;;0.80;99.90;;;-0.31;74.18;96105.03;10397829;28;2566;-78
2021/04/09 00:50:01;;;;;;;;;;;2.20;99.90;;;-0.25;73.95;96091.03;10408000;28;2790;-77
2021/04/09 00:55:04;;;;;;;;;;;0.80;99.90;;;-0.32;73.50;96095.44;10393242;28;2512;-78
2021/04/09 01:00:06;;;;;;;;;;;0.80;99.90;;;-0.33;74.02;96088.53;10408032;28;2470;-77
2021/04/09 01:05:08;;;;;;;;;;;0.90;99.90;;;-0.32;73.65;96079.59;10382436;28;3236;-77
2021/04/09 01:10:10;;;;;;;;;;;2.40;99.90;;;-0.28;73.88;96075.56;10412071;28;2321;-76
2021/04/09 01:15:12;;;;;;;;;;;0.80;99.90;;;-0.37;73.85;96067.00;10394489;28;2538;-77
2021/04/09 01:20:14;;;;;;;;;;;0.80;99.90;;;-0.36;74.22;96057.25;10395737;28;2846;-78
2021/04/09 01:25:16;;;;;;;;;;;0.80;99.90;;;-0.28;73.79;96057.06;10398191;28;2746;-78
2021/04/09 01:30:18;;;;;;;;;;;0.80;99.90;;;-0.42;74.11;96058.84;10400808;28;2548;-79
2021/04/09 01:35:20;;;;;;;;;;;0.80;99.90;;;-0.44;74.52;96052.16;10405367;28;2880;-76
2021/04/09 01:40:23;;;;;;;;;;;0.70;99.90;;;-0.61;75.25;96049.84;10397136;28;3180;-79
2021/04/09 01:45:25;;;;;;;;;;;1.80;99.90;;;-0.74;75.45;96051.63;10413793;28;2939;-77
2021/04/09 01:50:30;;;;;;;;;;;1.90;99.90;;;-0.90;76.45;96047.47;10409902;28;2357;-78
2021/04/09 01:55:32;;;;;;;;;;;0.50;99.90;;;-0.86;77.07;96051.34;10401707;28;2754;-77
2021/04/09 02:00:35;;;;;;;;;;;0.30;99.90;;;-0.79;76.73;96031.06;10407416;28;2341;-77
2021/04/09 02:05:37;;;;;;;;;;;0.30;99.90;;;-0.77;76.31;96034.31;10413137;28;2364;-76
2021/04/09 02:10:39;;;;;;;;;;;0.40;99.90;;;-0.71;74.77;96032.72;10414702;28;2200;-77
2021/04/09 02:15:43;;;;;;;;;;;0.40;99.90;;;-0.82;75.22;96031.47;10391728;28;2506;-78
2021/04/09 02:20:45;;;;;;;;;;;0.40;99.90;;;-0.94;76.37;96027.78;10408298;28;2516;-78
2021/04/09 02:25:47;;;;;;;;;;;0.40;99.90;;;-0.93;76.48;96024.13;10411425;28;2379;-79
2021/04/09 02:31:03;;;;;;;;;;;0.30;99.90;;;-1.05;76.93;96020.41;10393803;28;2352;-77
2021/04/09 02:36:05;;;;;;;;;;;0.20;99.90;;;-1.04;77.33;96016.75;10413218;28;2403;-77
2021/04/09 02:41:07;;;;;;;;;;;0.10;99.90;;;-1.00;76.45;96015.34;10398531;28;2661;-78
2021/04/09 02:46:09;;;;;;;;;;;0.10;99.90;;;-0.99;76.47;96009.88;10414692;28;2539;-79
2021/04/09 02:51:10;;;;;;;;;;;1.80;99.90;;;-1.22;77.66;96010.16;10419292;28;2480;-78
2021/04/09 02:56:12;;;;;;;;;;;1.90;99.90;;;-1.24;77.76;95995.53;10403892;28;2414;-78
2021/04/09 03:01:15;;;;;;;;;;;0.00;99.90;;;-1.23;77.46;96000.59;10418630;28;2020;-78
2021/04/09 03:06:17;;;;;;;;;;;0.00;99.90;;;-1.24;77.67;96001.63;10400568;28;2468;-79
2021/04/09 03:11:21;;;;;;;;;;;0.10;99.90;;;-1.11;75.99;95995.59;10407822;28;2432;-79
2021/04/09 03:16:25;;;;;;;;;;;0.10;99.90;;;-1.20;77.31;95992.31;10391113;28;2558;-77
2021/04/09 03:21:27;;;;;;;;;;;1.30;99.90;;;-1.24;76.87;95991.06;10410347;28;2491;-78
2021/04/09 03:26:29;;;;;;;;;;;2.40;99.90;;;-1.37;77.37;95985.72;10408310;28;2459;-77
2021/04/09 03:31:31;;;;;;;;;;;0.60;99.90;;;-1.48;77.73;95997.63;10390892;28;2503;-79
2021/04/09 03:36:33;;;;;;;;;;;-0.20;99.90;;;-1.55;77.59;95993.31;10414123;28;2384;-79
2021/04/09 03:41:35;;;;;;;;;;;-0.20;99.90;;;-1.64;78.28;95988.19;10410773;28;2467;-78
2021/04/09 03:46:37;;;;;;;;;;;-0.40;99.90;;;-1.77;78.02;95982.00;10421308;28;2582;-77
2021/04/09 03:51:39;;;;;;;;;;;-0.40;99.90;;;-1.86;78.31;95994.50;10399080;28;626599;-76
2021/04/09 03:56:41;;;;;;;;;;;-0.50;99.90;;;-1.91;79.13;95991.59;10406347;28;2548;-77
2021/04/09 04:01:43;;;;;;;;;;;0.40;99.90;;;-1.95;78.90;95980.66;10426373;28;2405;-77
2021/04/09 04:06:45;;;;;;;;;;;-0.60;99.90;;;-1.95;78.79;95978.03;10401234;28;1962;-77
2021/04/09 04:11:47;;;;;;;;;;;0.20;99.90;;;-1.94;79.12;95984.09;10391372;28;3136;-77
2021/04/09 04:16:49;;;;;;;;;;;-0.70;99.90;;;-1.76;78.54;95967.81;10407694;28;2523;-77
2021/04/09 04:21:53;;;;;;;;;;;-0.60;99.90;;;-1.82;79.11;95971.22;10399103;28;2566;-79
2021/04/09 04:26:55;;;;;;;;;;;-0.60;99.90;;;-1.71;77.82;95971.53;10412601;28;2464;-78
2021/04/09 04:31:58;;;;;;;;;;;-0.50;99.90;;;-1.69;77.17;95976.59;10408235;28;2582;-77
2021/04/09 04:37:00;;;;;;;;;;;-0.50;99.90;;;-1.40;76.00;95959.72;10421491;28;2400;-77
2021/04/09 04:42:02;;;;;;;;;;;-0.40;99.90;;;-1.44;75.25;95961.94;10420890;28;2551;-76
2021/04/09 04:47:04;;;;;;;;;;;0.60;99.90;;;-1.34;74.57;95969.50;10394217;28;2524;-78
2021/04/09 04:52:06;;;;;;;;;;;-0.20;99.90;;;-1.06;73.42;95968.66;10396219;28;2492;-78
2021/04/09 04:57:08;;;;;;;;;;;-0.10;99.90;;;-0.90;73.05;95973.56;10405531;28;2419;-80
2021/04/09 05:02:11;;;;;;;;;;;0.10;99.90;;;-0.66;71.87;95973.06;10408070;28;2543;-78
2021/04/09 05:07:13;;;;;;;;;;;0.20;99.90;;;-0.34;71.02;95975.97;10388029;28;2410;-78
2021/04/09 05:12:15;;;;;;;;;;;0.40;99.90;;;-0.08;70.65;95973.38;10407388;28;3082;-78
2021/04/09 05:17:17;;;;;;;;;;;0.80;99.90;;;0.36;68.75;95971.94;10404877;28;2598;-76
2021/04/09 05:22:20;;;;;;;;;;;1.10;99.90;;;0.66;67.47;95976.81;10389091;28;2510;-80
2021/04/09 05:27:22;;;;;;;;;;;1.50;99.90;;;1.12;65.03;95971.38;10387717;28;2643;-76
2021/04/09 05:32:24;;;;;;;;;;;2.40;99.90;;;1.65;62.44;95971.13;10406371;28;2435;-77
2021/04/09 05:37:26;;;;;;;;;;;2.20;99.90;;;2.24;60.72;95955.84;10390502;28;2447;-76
2021/04/09 05:42:28;;;;;;;;;;;4.10;99.90;;;2.48;57.21;95959.50;10405088;28;2626;-76
2021/04/09 05:47:30;;;;;;;;;;;3.00;99.90;;;2.92;55.86;95950.50;10402735;28;2408;-77
2021/04/09 05:52:32;;;;;;;;;;;4.60;99.90;;;3.20;54.09;95942.81;10415155;28;2318;-78
2021/04/09 05:57:35;;;;;;;;;;;5.60;99.90;;;3.45;52.27;95942.72;10418420;28;2216;-77
2021/04/09 06:02:37;;;;;;;;;;;5.40;99.90;;;3.38;52.64;95939.34;10395495;28;2376;-79
2021/04/09 06:07:41;;;;;;;;;;;5.90;99.90;;;3.52;52.30;95945.28;10402942;28;1942;-78
2021/04/09 06:12:43;;;;;;;;;;;4.30;97.60;;;3.69;52.24;95942.78;10398280;28;2337;-78
2021/04/09 06:17:45;;;;;;;;;;;4.40;96.20;;;3.81;50.85;95948.97;10413719;28;2379;-76
2021/04/09 06:22:47;;;;;;;;;;;5.50;94.80;;;4.12;49.94;95942.56;10418382;28;2427;-79
2021/04/09 06:27:49;;;;;;;;;;;6.40;94.30;;;4.55;47.92;95941.47;10411030;28;2285;-77
2021/04/09 06:32:54;;;;;;;;;;;5.10;91.90;;;5.01;47.36;95935.28;10415285;28;2201;-79
2021/04/09 06:37:56;;;;;;;;;;;5.50;90.40;;;5.27;45.75;95935.81;10402983;28;2347;-77
2021/04/09 06:43:00;;;;;;;;;;;7.50;88.40;;;5.40;44.81;95928.34;10410297;28;2300;-78
2021/04/09 06:48:02;;;;;;;;;;;7.70;86.10;;;6.02;43.90;95926.84;10398961;28;2670;-77
2021/04/09 06:53:05;;;;;;;;;;;6.60;84.20;;;6.27;42.18;95927.25;10409338;28;2377;-80
2021/04/09 06:58:07;;;;;;;;;;;7.00;82.10;;;6.57;40.22;95926.94;10408165;28;2234;-78
2021/04/09 07:03:10;;;;;;;;;;;7.30;79.00;;;6.99;38.38;95918.44;10425581;28;2295;-79
2021/04/09 07:08:12;;;;;;;;;;;8.20;76.60;;;7.34;38.42;95912.75;10420919;28;2173;-79
2021/04/09 07:13:17;;;;;;;;;;;8.00;74.90;;;7.44;37.53;95907.50;10421137;28;2381;-77
2021/04/09 07:18:19;;;;;;;;;;;8.20;73.20;;;7.89;35.18;95908.22;10398616;28;2690;-78
2021/04/09 07:23:23;;;;;;;;;;;8.70;69.70;;;8.22;35.35;95904.53;10417673;28;2371;-77
2021/04/09 07:28:26;;;;;;;;;;;10.30;68.90;;;8.38;32.71;95906.28;10408042;28;1970;-77
2021/04/09 07:33:29;;;;;;;;;;;9.10;65.40;;;8.62;33.83;95904.06;10418065;28;2439;-79
2021/04/09 07:38:31;;;;;;;;;;;9.50;64.80;;;9.18;31.53;95897.13;10408866;28;1997;-78
2021/04/09 07:43:33;;;;;;;;;;;10.50;62.70;;;9.55;30.54;95887.38;10421410;28;2724;-79
2021/04/09 07:48:38;;;;;;;;;;;10.30;60.80;;;9.84;29.19;95890.38;10416900;28;2487;-79
2021/04/09 07:53:46;;;;;;;;;;;10.60;58.60;;;10.07;29.97;95889.88;10427041;28;2289;-80
2021/04/09 07:58:48;;;;;;;;;;;10.80;58.00;;;10.45;28.98;95880.50;10445941;28;2294;-78
2021/04/09 08:09:08;;;;;;;;;;;11.50;54.70;;;10.99;26.60;95881.75;11968256;23;1905;-80
2021/04/09 08:14:21;;;;;;;;;;;11.60;53.20;;;11.02;26.24;95871.25;10357342;28;3068;-80
2021/04/09 08:19:28;;;;;;;;;;;11.60;51.90;;;11.17;25.28;95865.03;10362672;28;1914;-81
2021/04/09 08:24:32;;;;;;;;;;;12.30;50.20;;;11.54;25.27;95863.78;10333355;28;2174;-79
2021/04/09 08:29:34;;;;;;;;;;;12.40;49.70;;;11.54;24.63;95863.78;10323797;28;1980;-81
2021/04/09 08:34:51;;;;;;;;;;;12.60;48.20;;;11.78;23.72;95874.72;10322059;28;2003;-82
2021/04/09 08:39:54;;;;;;;;;;;12.80;47.40;;;11.94;23.09;95872.75;10314594;28;2018;-83
2021/04/09 08:44:56;;;;;;;;;;;13.00;45.70;;;12.12;22.13;95864.00;10328872;28;2630;-82
2021/04/09 08:49:58;;;;;;;;;;;13.20;44.80;;;12.28;22.55;95856.59;10321214;28;2213;-80
2021/04/09 08:54:59;;;;;;;;;;;13.30;44.90;;;12.26;22.96;95859.56;10334422;28;2711;-79
2021/04/09 09:00:02;;;;;;;;;;;13.40;45.10;;;12.56;21.80;95852.31;10341029;28;1899;-81
2021/04/09 09:05:04;;;;;;;;;;;13.60;44.50;;;12.77;22.20;95855.63;10334512;28;2297;-81
2021/04/09 09:10:06;;;;;;;;;;;13.80;44.40;;;12.97;21.36;95850.00;10369530;28;2427;-83
2021/04/09 09:15:07;;;;;;;;;;;13.90;43.00;;;13.01;21.62;95856.44;10320728;28;2393;-82
2021/04/09 09:20:10;;;;;;;;;;;14.00;43.10;;;13.25;20.74;95848.38;10331867;28;2347;-80
2021/04/09 09:25:12;;;;;;;;;;;14.30;42.20;;;13.46;21.41;95838.13;10335244;28;2478;-80
2021/04/09 09:30:17;;;;;;;;;;;14.40;42.20;;;13.65;19.06;95833.53;10338871;28;2378;-80
2021/04/09 09:35:19;;;;;;;;;;;14.60;40.30;;;13.85;19.54;95835.16;10348362;28;2322;-79
2021/04/09 09:40:21;;;;;;;;;;;14.80;40.10;;;14.14;18.61;95831.50;10379173;28;2036;-79
2021/04/09 09:45:23;;;;;;;;;;;15.00;39.70;;;14.04;20.54;95811.63;10352160;28;2248;-80
2021/04/09 09:50:26;;;;;;;;;;;15.10;40.30;;;14.12;18.96;95815.53;10350672;28;2337;-80
2021/04/09 09:55:31;;;;;;;;;;;15.20;38.80;;;14.05;19.69;95797.00;10355437;28;2671;-81
2021/04/09 10:00:33;;;;;;;;;;;15.20;38.90;;;14.20;19.33;95790.56;10356742;28;2481;-82
2021/04/09 10:05:35;;;;;;;;;;;15.30;39.20;;;14.30;18.92;95786.88;10345239;28;2741;-80
2021/04/09 10:10:37;;;;;;;;;;;15.40;39.20;;;14.41;19.69;95779.38;10342642;28;2199;-81
2021/04/09 10:15:39;;;;;;;;;;;15.50;39.00;;;14.45;19.31;95773.09;10323224;28;2287;-81
2021/04/09 10:20:47;;;;;;;;;;;15.60;38.80;;;14.66;18.97;95767.34;10331260;28;2552;-80
2021/04/09 10:25:51;;;;;;;;;;;15.70;38.60;;;14.88;18.26;95748.50;10355907;28;2734;-81
2021/04/09 10:30:56;;;;;;;;;;;15.90;38.00;;;15.16;18.61;95737.66;10358685;28;2392;-82
2021/04/09 10:36:01;;;;;;;;;;;16.00;37.90;;;15.12;18.37;95732.03;10330991;28;2673;-82
2021/04/09 10:41:04;;;;;;;;;;;16.30;37.80;;;15.47;18.49;95722.34;10348979;28;2367;-81
2021/04/09 10:46:06;;;;;;;;;;;16.50;37.80;;;15.57;17.31;95724.81;10340319;28;2403;-80
2021/04/09 10:51:09;;;;;;;;;;;16.60;37.00;;;15.77;17.05;95717.34;10366554;28;2487;-81
2021/04/09 10:56:16;;;;;;;;;;;16.70;36.10;;;15.60;15.64;95721.50;10345904;28;2568;-82
2021/04/09 11:01:20;;;;;;;;;;;16.70;34.30;;;15.51;16.38;95712.47;10360422;28;2239;-81
2021/04/09 11:06:33;;;;;;;;;;;16.60;34.40;;;15.86;16.64;95710.88;10352957;28;2168;-81
2021/04/09 11:11:35;;;;;;;;;;;16.80;35.60;;;15.94;15.59;95699.28;10355868;28;1962;-81
2021/04/09 11:16:37;;;;;;;;;;;16.90;34.40;;;16.24;16.36;95699.63;10351857;28;2364;-80
2021/04/09 11:21:53;;;;;;;;;;;17.20;34.50;;;16.55;15.87;95694.19;10342683;28;2378;-80
2021/04/09 11:26:55;;;;;;;;;;;17.40;34.60;;;16.92;15.98;95690.19;10353253;28;2310;-79
2021/04/09 11:31:57;;;;;;;;;;;17.70;34.80;;;17.15;15.95;95682.72;10335118;28;2345;-81
2021/04/09 11:36:59;;;;;;;;;;;18.10;34.40;;;17.48;15.75;95668.69;10339528;28;2399;-82
2021/04/09 11:42:01;;;;;;;;;;;18.10;34.30;;;17.41;16.57;95669.16;10368032;28;2290;-80
2021/04/09 11:47:03;;;;;;;;;;;18.20;35.00;;;17.40;15.71;95661.31;10355294;28;2323;-80
2021/04/09 11:52:06;;;;;;;;;;;18.20;34.10;;;17.32;17.35;95651.25;10361029;28;2338;-80
2021/04/09 11:57:08;;;;;;;;;;;18.30;35.10;;;17.42;15.96;95651.72;10372852;28;2292;-80
2021/04/09 12:02:11;;;;;;;;;;;18.30;34.10;;;17.81;15.90;95634.47;10355578;28;2358;-79
2021/04/09 12:07:13;;;;;;;;;;;18.50;34.10;;;17.91;16.28;95627.88;10356289;28;2206;-80
2021/04/09 12:12:15;;;;;;;;;;;18.70;34.30;;;18.03;16.32;95610.91;10342222;28;2270;-81
2021/04/09 12:17:17;;;;;;;;;;;19.10;34.10;;;18.77;15.18;95610.44;10374303;28;2362;-82
2021/04/09 12:22:19;;;;;;;;;;;19.30;33.60;;;18.69;15.50;95614.00;10347347;28;2458;-80
2021/04/09 12:27:23;;;;;;;;;;;19.50;33.10;;;19.03;14.97;95606.75;10337319;28;2298;-80
2021/04/09 12:32:25;;;;;;;;;;;19.70;33.10;;;18.75;14.05;95593.63;10347048;28;2330;-81
2021/04/09 12:37:27;;;;;;;;;;;19.80;31.60;;;18.87;14.25;95592.91;10336673;28;2333;-79
2021/04/09 12:42:29;;;;;;;;;;;19.70;32.10;;;18.62;14.49;95591.91;10353058;28;2650;-81
2021/04/09 12:47:31;;;;;;;;;;;19.70;31.70;;;18.28;14.55;95585.53;10353077;28;2647;-81
2021/04/09 12:52:33;;;;;;;;;;;19.30;31.70;;;18.13;15.60;95583.31;10331232;28;2704;-80
2021/04/09 12:57:35;;;;;;;;;;;19.10;32.30;;;18.17;14.11;95581.56;10338945;28;2227;-80
2021/04/09 13:02:36;;;;;;;;;;;19.10;31.20;;;18.19;14.67;95582.03;10321908;28;2305;-83
2021/04/09 13:07:38;;;;;;;;;;;18.90;31.70;;;18.71;14.33;95572.84;10334343;28;2268;-81
2021/04/09 13:12:40;;;;;;;;;;;19.20;31.80;;;18.54;14.82;95576.44;10332330;28;2386;-84
2021/04/09 13:17:54;;;;;;;;;;;19.30;31.70;;;18.04;14.34;95577.13;10315673;28;2417;-81
2021/04/09 13:23:00;;;;;;;;;;;19.10;31.20;;;17.87;13.89;95560.88;10300600;28;2582;-81
2021/04/09 13:28:09;;;;;;;;;;;18.90;30.50;;;18.24;14.04;95567.44;10319462;28;2428;-79
2021/04/09 13:33:44;;;;;;;;;;;19.00;30.80;;;18.19;13.84;95567.63;10331873;28;2397;-79
2021/04/09 13:38:59;;;;;;;;;;;19.10;30.60;;;17.85;13.67;95557.69;10309731;28;2256;-81
2021/04/09 13:49:26;;;;;;;;;;;19.10;30.70;;;18.18;13.51;95550.50;10320063;28;2369;-81
2021/04/09 13:54:40;;;;;;;;;;;19.10;30.30;;;18.13;12.21;95547.97;10309349;28;2644;-83
2021/04/09 14:00:00;;;;;;;;;;;18.90;29.00;;;18.03;13.88;95545.63;10317778;28;1942;-81
2021/04/09 14:05:36;;;;;;;;;;;18.90;30.30;;;17.68;13.78;95547.63;10305835;28;2124;-81
2021/04/09 14:10:37;;;;;;;;;;;18.70;30.10;;;17.42;14.12;95529.44;10344814;28;2271;-82
2021/04/09 14:21:28;;;;;;;;;;;18.30;29.10;;;17.53;12.46;95529.91;10312724;28;2534;-82
2021/04/09 14:26:31;;;;;;;;;;;18.30;28.80;;;17.56;12.94;95526.56;10321249;28;2356;-82
2021/04/09 14:31:36;;;;;;;;;;;18.40;28.90;;;17.69;11.94;95528.28;10321152;28;2362;-82
2021/04/09 14:36:38;;;;;;;;;;;18.60;28.30;;;17.53;12.69;95519.06;10327088;28;2373;-83
2021/04/09 14:42:00;;;;;;;;;;;18.40;28.50;;;17.38;12.58;95517.66;10338488;28;2354;-84
2021/04/09 14:47:02;;;;;;;;;;;18.40;28.40;;;17.13;13.83;95524.72;10315357;28;2301;-83
2021/04/09 14:52:05;;;;;;;;;;;18.20;29.20;;;17.32;13.21;95520.88;10346725;28;2317;-82
2021/04/09 14:57:23;;;;;;;;;;;18.10;29.40;;;17.23;13.75;95508.06;10323368;28;2743;-85
2021/04/09 15:02:30;;;;;;;;;;;18.20;29.40;;;16.88;14.10;95526.31;10330106;28;2107;-82
2021/04/09 15:07:39;;;;;;;;;;;17.90;29.80;;;16.68;13.94;95514.16;10341158;28;1909;-82
2021/04/09 15:12:42;;;;;;;;;;;17.70;30.00;;;16.56;14.87;95518.63;10337148;28;2396;-83
2021/04/09 15:17:46;;;;;;;;;;;17.60;30.80;;;16.68;14.65;95507.94;10331272;28;2343;-85
2021/04/09 15:22:58;;;;;;;;;;;17.60;30.60;;;16.76;13.96;95507.16;10326107;28;2219;-83
2021/04/09 15:28:08;;;;;;;;;;;17.60;29.90;;;16.67;13.74;95499.00;10337252;28;2418;-84
2021/04/09 15:33:25;;;;;;;;;;;17.50;29.80;;;16.51;14.04;95499.78;10325309;28;2645;-82
2021/04/09 15:44:24;;;;;;;;;;;17.40;29.70;;;16.34;14.14;95495.91;10308057;28;1825;-83
2021/04/09 15:49:33;;;;;;;;;;;17.20;29.80;;;16.15;14.11;95493.47;10342677;28;1914;-83
2021/04/09 15:54:35;;;;;;;;;;;17.10;30.20;;;16.25;14.25;95489.69;10345884;28;1649;-81
2021/04/09 15:59:46;;;;;;;;;;;17.00;30.20;;;15.94;14.67;95492.47;10324467;28;1840;-82
2021/04/09 16:04:50;;;;;;;;;;;16.90;30.50;;;15.89;15.42;95489.91;10333013;28;1460;-84
2021/04/09 16:09:52;;;;;;;;;;;16.80;31.20;;;15.71;15.14;95480.09;10339660;28;3374;-81
2021/04/09 16:14:54;;;;;;;;;;;16.70;31.20;;;15.37;15.72;95484.22;10325096;28;2406;-79
2021/04/09 16:19:56;;;;;;;;;;;16.50;31.20;;;15.26;16.02;95482.88;10338513;28;2395;-81
2021/04/09 16:24:59;;;;;;;;;;;16.30;31.80;;;15.12;16.64;95483.75;10352021;28;1627;-82
2021/04/09 16:30:02;;;;;;;;;;;16.10;32.20;;;15.14;17.21;95484.28;10337726;28;1918;-89
2021/04/09 16:35:18;;;;;;;;;;;16.10;32.90;;;14.92;17.69;95483.47;10348429;28;1283;-83
2021/04/09 16:40:23;;;;;;;;;;;16.10;33.30;;;14.55;17.72;95486.22;10353953;28;1602;-81
2021/04/09 16:45:28;;;;;;;;;;;15.80;33.30;;;14.23;18.33;95480.97;10338300;28;2356;-84
2021/04/09 16:50:30;;;;;;;;;;;15.40;33.60;;;13.91;18.96;95485.41;10352112;28;2406;-83
2021/04/09 16:55:32;;;;;;;;;;;15.10;34.40;;;13.75;19.16;95484.13;10345389;28;2325;-82
2021/04/09 17:00:34;;;;;;;;;;;14.90;34.70;;;13.60;19.51;95479.81;10348659;28;2227;-85
2021/04/09 17:05:47;;;;;;;;;;;14.80;35.20;;;13.52;20.38;95478.59;10349368;28;3023;-85
2021/04/09 17:10:57;;;;;;;;;;;14.60;35.70;;;13.40;20.02;95494.47;10359211;28;2243;-82
2021/04/09 17:16:16;;;;;;;;;;;14.50;36.00;;;13.25;20.51;95492.88;10350712;28;1779;-83
2021/04/09 17:21:20;;;;;;;;;;;14.40;36.60;;;13.21;21.17;95494.56;10336973;28;2184;-84
2021/04/09 17:26:25;;;;;;;;;;;14.30;37.00;;;12.99;21.96;95486.28;10326205;28;2371;-80
2021/04/09 17:31:28;;;;;;;;;;;14.20;37.40;;;12.65;22.98;95489.25;10336003;28;2363;-82
2021/04/09 17:36:30;;;;;;;;;;;14.00;38.00;;;12.24;23.24;95489.84;10330598;28;2250;-86
2021/04/09 17:41:37;;;;;;;;;;;13.70;38.70;;;11.96;24.23;95488.88;10354206;28;2444;-79
2021/04/09 17:46:39;;;;;;;;;;;13.40;39.10;;;11.86;24.31;95489.78;10345497;28;2377;-80
2021/04/09 17:51:41;;;;;;;;;;;13.20;39.70;;;11.56;25.01;95490.13;10361130;28;2289;-81
2021/04/09 17:56:43;;;;;;;;;;;13.00;40.30;;;11.33;25.49;95486.34;10342380;28;2294;-81
2021/04/09 18:01:56;;;;;;;;;;;12.70;40.90;;;11.12;25.88;95491.09;10343019;28;1874;-81
2021/04/09 18:07:06;;;;;;;;;;;12.40;41.30;;;10.92;26.63;95493.97;10339971;28;2279;-81
2021/04/09 18:12:14;;;;;;;;;;;12.30;42.10;;;10.74;27.17;95493.56;10334980;28;2500;-80
2021/04/09 18:17:16;;;;;;;;;;;12.10;42.60;;;10.76;27.14;95488.75;10344618;28;1573;-81
2021/04/09 18:22:18;;;;;;;;;;;11.90;43.10;;;10.75;27.53;95486.31;10322579;28;2253;-81
2021/04/09 18:27:20;;;;;;;;;;;11.90;43.50;;;10.60;27.54;95499.88;10328828;28;2362;-81
2021/04/09 18:32:23;;;;;;;;;;;11.90;43.50;;;10.38;28.33;95500.31;10332342;28;2509;-81
2021/04/09 18:37:25;;;;;;;;;;;11.70;43.90;;;10.25;28.84;95502.53;10331921;28;2318;-79
2021/04/09 18:42:27;;;;;;;;;;;11.60;44.50;;;10.07;29.07;95500.44;10315767;28;2405;-81
2021/04/09 18:47:29;;;;;;;;;;;11.40;44.70;;;10.01;29.35;95509.59;10323609;28;2604;-81
2021/04/09 18:52:31;;;;;;;;;;;11.30;44.90;;;10.01;29.38;95505.03;10336801;28;2306;-82
2021/04/09 18:57:37;;;;;;;;;;;11.20;45.20;;;10.02;29.44;95511.22;10320504;28;2284;-81
2021/04/09 19:02:38;;;;;;;;;;;11.20;45.60;;;10.14;29.74;95516.25;10337017;28;2828;-80
2021/04/09 19:07:41;;;;;;;;;;;11.20;45.90;;;10.19;29.69;95521.59;10320312;28;2366;-81
2021/04/09 19:12:43;;;;;;;;;;;11.20;46.00;;;10.06;30.04;95525.69;10311705;28;2314;-81
2021/04/09 19:17:45;;;;;;;;;;;11.20;46.00;;;10.01;30.30;95521.16;10338284;28;2198;-81
2021/04/09 19:22:48;;;;;;;;;;;11.20;46.20;;;9.98;30.48;95526.25;10336522;28;2282;-81
2021/04/09 19:27:53;;;;;;;;;;;11.10;46.70;;;9.95;30.73;95524.13;10345424;28;2286;-80
2021/04/09 19:32:55;;;;;;;;;;;11.10;47.00;;;9.90;31.07;95533.00;10361345;28;2695;-81
2021/04/09 19:38:00;;;;;;;;;;;11.10;47.40;;;9.73;31.53;95528.00;10333214;28;2508;-80
2021/04/09 19:43:02;;;;;;;;;;;11.00;47.70;;;9.67;31.75;95531.75;10315620;28;2711;-81
2021/04/09 19:48:04;;;;;;;;;;;10.80;48.20;;;9.55;32.74;95517.84;10338318;28;2356;-79
2021/04/09 19:53:06;;;;;;;;;;;10.80;48.60;;;9.22;33.16;95516.56;10321840;28;2708;-81
2021/04/09 19:58:08;;;;;;;;;;;10.50;49.00;;;9.18;33.48;95529.72;10332037;28;2012;-81
2021/04/09 20:03:30;;;;;;;;;;;10.40;49.60;;;9.07;34.06;95530.78;10299628;28;2314;-78
2021/04/09 20:08:32;;;;;;;;;;;10.20;50.30;;;9.13;35.16;95535.09;10332527;28;2382;-81
2021/04/09 20:13:34;;;;;;;;;;;10.20;51.30;;;9.02;34.41;95528.13;10316212;28;2735;-82
2021/04/09 20:18:36;;;;;;;;;;;10.20;50.80;;;8.85;35.17;95539.13;10306792;28;2263;-82
2021/04/09 20:23:40;;;;;;;;;;;10.10;51.00;;;8.56;35.63;95538.03;10310742;28;2285;-82
2021/04/09 20:28:41;;;;;;;;;;;9.90;51.30;;;8.37;36.10;95543.09;10336271;28;2180;-82
2021/04/09 20:33:43;;;;;;;;;;;10.40;52.20;;;8.37;36.33;95545.75;10337942;28;1901;-83
2021/04/09 20:38:45;;;;;;;;;;;9.60;52.10;;;8.23;37.34;95539.28;10324532;28;2482;-81
2021/04/09 20:43:47;;;;;;;;;;;10.70;53.40;;;8.26;37.90;95541.41;10332001;28;2311;-81
2021/04/09 20:48:49;;;;;;;;;;;9.50;53.30;;;8.12;37.71;95539.25;10338790;28;1972;-81
2021/04/09 20:53:51;;;;;;;;;;;10.80;54.50;;;8.22;38.22;95545.72;10329329;28;2356;-80
2021/04/09 20:58:53;;;;;;;;;;;9.50;54.50;;;8.39;37.73;95533.72;10312410;28;2551;-81
2021/04/09 21:03:55;;;;;;;;;;;9.30;54.60;;;8.62;37.37;95537.78;10305203;28;2406;-82
2021/04/09 21:08:57;;;;;;;;;;;9.50;54.30;;;8.76;37.22;95532.69;10333707;28;2259;-82
2021/04/09 21:13:59;;;;;;;;;;;9.90;54.10;;;8.81;36.96;95530.00;10320557;28;2416;-82
2021/04/09 21:19:01;;;;;;;;;;;11.00;54.40;;;8.88;36.72;95535.09;10350049;28;2049;-82
2021/04/09 21:24:03;;;;;;;;;;;9.80;53.60;;;8.89;36.32;95517.94;10334679;28;2298;-83
2021/04/09 21:29:04;;;;;;;;;;;9.90;53.30;;;8.96;36.09;95526.50;10344249;28;2306;-84
2021/04/09 21:34:06;;;;;;;;;;;10.80;53.50;;;8.93;35.95;95516.34;10349932;28;2354;-81
2021/04/09 21:39:08;;;;;;;;;;;10.00;53.10;;;8.87;36.39;95523.56;10338974;28;2374;-81
2021/04/09 21:44:10;;;;;;;;;;;9.90;53.10;;;10.22;37.53;95524.53;10335439;28;2333;-81
2021/04/09 21:49:12;;;;;;;;;;;10.70;55.80;;;9.50;35.48;95520.53;10338482;28;2135;-83
2021/04/09 21:54:14;;;;;;;;;;;10.70;52.50;;;9.19;35.81;95517.91;10338025;28;2404;-80
2021/04/09 21:59:24;;;;;;;;;;;10.30;52.50;;;8.98;36.37;95524.38;10342426;28;2496;-80
2021/04/09 22:04:26;;;;;;;;;;;10.10;52.70;;;8.66;37.02;95522.78;10328052;28;1972;-80
2021/04/09 22:09:29;;;;;;;;;;;9.90;53.40;;;8.48;37.79;95523.28;10339569;28;1894;-80
2021/04/09 22:14:31;;;;;;;;;;;10.50;54.40;;;8.24;39.02;95514.91;10332703;28;2075;-80
2021/04/09 22:19:35;;;;;;;;;;;9.50;54.80;;;8.05;39.50;95525.31;10347946;28;1932;-80
2021/04/09 22:24:37;;;;;;;;;;;10.60;56.10;;;7.90;39.62;95524.47;10342963;28;1266;-78
2021/04/09 22:29:40;;;;;;;;;;;9.10;56.30;;;7.73;40.20;95516.63;10336083;28;1987;-81
2021/04/09 22:34:42;;;;;;;;;;;10.10;57.20;;;7.64;40.65;95515.53;10344061;28;1581;-83
2021/04/09 22:39:44;;;;;;;;;;;8.80;57.00;;;7.61;41.45;95508.00;10322524;28;1596;-82
2021/04/09 22:44:46;;;;;;;;;;;9.70;58.10;;;7.74;41.30;95510.22;10328237;28;1519;-81
2021/04/09 22:49:48;;;;;;;;;;;9.60;58.30;;;7.70;42.25;95507.28;10317470;28;1970;-82
2021/04/09 22:54:50;;;;;;;;;;;9.50;58.80;;;7.83;42.34;95503.31;10347146;28;1344;-81
2021/04/09 22:59:52;;;;;;;;;;;10.70;59.70;;;7.90;42.00;95501.19;10323066;28;1696;-83
2021/04/09 23:04:54;;;;;;;;;;;8.90;58.90;;;7.88;42.09;95500.63;10329235;28;1602;-82
2021/04/09 23:09:56;;;;;;;;;;;10.00;59.60;;;7.66;43.20;95494.66;10338835;28;1907;-82
2021/04/09 23:14:58;;;;;;;;;;;8.80;59.60;;;7.51;43.33;95501.56;10356559;28;1643;-81
2021/04/09 23:20:00;;;;;;;;;;;9.40;60.30;;;7.42;43.73;95496.97;10330231;28;2796;-81
2021/04/09 23:25:02;;;;;;;;;;;10.30;61.30;;;7.31;44.13;95496.09;10337665;28;2779;-82
2021/04/09 23:30:04;;;;;;;;;;;9.50;61.30;;;7.17;44.55;95500.31;10355497;28;1967;-81
2021/04/09 23:35:06;;;;;;;;;;;8.70;61.30;;;7.20;44.80;95502.47;10330119;28;2740;-81
2021/04/09 23:40:08;;;;;;;;;;;10.10;62.60;;;7.25;44.71;95497.13;10350506;28;2901;-84
2021/04/09 23:45:10;;;;;;;;;;;8.30;61.80;;;7.21;44.81;95485.38;10327722;28;2798;-82
2021/04/09 23:50:12;;;;;;;;;;;9.30;62.70;;;7.18;45.40;95484.00;10321777;28;1980;-81